Terminal Aerodrome Forecast
Issued by NWS Bismarck, ND

Home | Current Version | Previous Version | Graphics & Text | Print | Product List | Glossary On
Versions: 1 2 3 4 5 6 7 8 9 10 11 12 13 14 15 16 17 18
000
FTUS43 KBIS 241100
TAFBIS
TAF
KBIS 241138Z 2412/2512 27007KT P6SM OVC150
     FM241600 29009KT P6SM -RA SCT015 OVC025
     FM241800 32014G17KT 4SM -RA BR OVC010
     FM250300 33016G22KT 3SM -RASN BR OVC012
     FM250600 32015G20KT 2SM -SN BR OVC011=

USA.gov is the U.S. government's official web portal to all federal, state and local government web resources and services.